< < Back
Terminal Aerodrome Forecast


Current Version              Previous Versions:   1  2  3  4  5  6  7  8  9  

Terminal Aerodrome Forecast

475
FTUS42 KILM 271700
TAFFLO
TAF
KFLO 271720Z 2718/2818 34009KT P6SM BKN100
     FM280200 VRB03KT P6SM SKC
     FM281300 36009KT P6SM SKC=

Latest METAR

779
SAUS70 KWBC 280558
MTRFLO
METAR KFLO 280553Z AUTO 34009KT 10SM CLR 02/M06 A3003 RMK AO2 SLP166
T00221061 10050 20006 51019


USA.gov is the U.S. government's official web portal to all federal, state and local government web resources and services.